Time;durP1;ratioP1;P1;durP2;ratioP2;P2;SDS_P1;SDS_P2;PMS_P1;PMS_P2;Temp;Humidity;BMP_temperature;BMP_pressure;BME280_temperature;BME280_humidity;BME280_pressure;Samples;Min_cycle;Max_cycle;Signal;HPM_P1;HPM_P2
2024/02/21 00:00:35;;;;;;;1999.90;999.90;;;12.50;99.90;;;;;;5027361;28;20045;-76
2024/02/21 00:03:02;;;;;;;1999.90;999.90;;;12.60;99.90;;;;;;5019355;28;20390;-76
2024/02/21 00:05:28;;;;;;;1999.90;999.90;;;12.60;99.90;;;;;;5016758;28;20518;-76
2024/02/21 00:07:54;;;;;;;1999.90;999.90;;;12.50;99.90;;;;;;5030092;28;20030;-76
2024/02/21 00:10:20;;;;;;;1999.90;999.90;;;12.50;99.90;;;;;;5030393;28;20398;-76
2024/02/21 00:12:46;;;;;;;1999.90;999.90;;;12.50;99.90;;;;;;5021950;28;20052;-76
2024/02/21 00:15:12;;;;;;;1999.90;999.90;;;12.60;99.90;;;;;;5030354;28;20060;-76
2024/02/21 00:17:39;;;;;;;1999.90;999.90;;;12.60;99.90;;;;;;5035327;28;20029;-76
2024/02/21 00:20:06;;;;;;;1999.90;999.90;;;12.60;99.90;;;;;;5034317;28;20390;-76
2024/02/21 00:22:33;;;;;;;1999.90;999.90;;;12.70;99.90;;;;;;5021100;28;20029;-77
2024/02/21 00:24:59;;;;;;;1999.90;999.90;;;12.70;99.90;;;;;;5021401;28;20033;-77
2024/02/21 00:27:25;;;;;;;1999.90;999.90;;;12.70;99.90;;;;;;5032334;28;20033;-76
2024/02/21 00:29:51;;;;;;;1999.90;999.90;;;12.70;99.90;;;;;;5034330;28;20033;-76
2024/02/21 00:32:17;;;;;;;1999.90;999.90;;;12.70;99.90;;;;;;5032859;28;20038;-76
2024/02/21 00:34:44;;;;;;;1999.90;999.90;;;12.70;99.90;;;;;;5018328;28;20032;-76
2024/02/21 00:37:10;;;;;;;1999.90;999.90;;;12.60;99.90;;;;;;5031780;28;20051;-76
2024/02/21 00:39:36;;;;;;;1999.90;999.90;;;12.60;99.90;;;;;;5024688;28;20026;-76
2024/02/21 00:42:03;;;;;;;1999.90;999.90;;;12.60;99.90;;;;;;5032628;28;20414;-76
2024/02/21 00:44:29;;;;;;;1999.90;999.90;;;12.60;99.90;;;;;;5032700;28;20036;-76
2024/02/21 00:46:55;;;;;;;1999.90;999.90;;;12.70;99.90;;;;;;5033673;28;20478;-76
2024/02/21 00:49:21;;;;;;;1999.90;999.90;;;12.70;99.90;;;;;;5034779;28;20504;-76
2024/02/21 00:51:47;;;;;;;1999.90;999.90;;;12.70;99.90;;;;;;5033788;28;20030;-76
2024/02/21 00:54:13;;;;;;;1999.90;999.90;;;12.70;99.90;;;;;;5021599;28;20026;-75
2024/02/21 00:56:40;;;;;;;1999.90;999.90;;;12.70;99.90;;;;;;5015483;28;20056;-76
2024/02/21 00:59:06;;;;;;;1999.90;999.90;;;12.70;99.90;;;;;;5031506;28;20030;-76
2024/02/21 01:01:32;;;;;;;1999.90;999.90;;;12.60;99.90;;;;;;5033081;28;20048;-76
2024/02/21 01:03:58;;;;;;;1999.90;999.90;;;12.60;99.90;;;;;;5033395;28;20033;-76
2024/02/21 01:06:24;;;;;;;1999.90;999.90;;;12.60;99.90;;;;;;5032988;28;20482;-76
2024/02/21 01:08:50;;;;;;;1999.90;999.90;;;12.70;99.90;;;;;;5028141;28;20030;-76
2024/02/21 01:11:16;;;;;;;1999.90;999.90;;;12.70;99.90;;;;;;5022947;28;20025;-76
2024/02/21 01:13:42;;;;;;;1999.90;999.90;;;12.70;99.90;;;;;;5033507;28;20033;-77
2024/02/21 01:16:08;;;;;;;1999.90;999.90;;;12.70;99.90;;;;;;5029815;28;20037;-77
2024/02/21 01:18:34;;;;;;;1999.90;999.90;;;12.60;99.90;;;;;;5034448;28;20037;-77
2024/02/21 01:21:01;;;;;;;1999.90;999.90;;;12.60;99.90;;;;;;5031838;28;20060;-76
2024/02/21 01:23:27;;;;;;;1999.90;999.90;;;12.50;99.90;;;;;;5031342;28;20030;-76
2024/02/21 01:25:55;;;;;;;1999.90;999.90;;;12.40;99.90;;;;;;5032724;28;20485;-76
2024/02/21 01:28:21;;;;;;;1999.90;999.90;;;12.30;99.90;;;;;;5032695;28;20060;-76
2024/02/21 01:30:47;;;;;;;1999.90;999.90;;;12.40;99.90;;;;;;5032047;28;20034;-76
2024/02/21 01:33:13;;;;;;;1999.90;999.90;;;12.40;99.90;;;;;;5030158;28;20065;-76
2024/02/21 01:35:39;;;;;;;1999.90;999.90;;;12.30;99.90;;;;;;5030011;28;20038;-76
2024/02/21 01:38:05;;;;;;;1999.90;999.90;;;12.20;99.90;;;;;;5032468;28;20033;-76
2024/02/21 01:40:31;;;;;;;1999.90;999.90;;;12.20;99.90;;;;;;5032298;28;20041;-76
2024/02/21 01:42:57;;;;;;;1999.90;999.90;;;12.30;99.90;;;;;;5032487;28;20041;-76
2024/02/21 01:45:23;;;;;;;663.30;404.95;;;12.30;99.90;;;;;;5029063;28;20045;-76
2024/02/21 01:47:49;;;;;;;1999.90;999.90;;;12.30;99.90;;;;;;5031887;28;20053;-76
2024/02/21 01:50:15;;;;;;;1999.90;999.90;;;12.30;99.90;;;;;;5027360;28;20021;-76
2024/02/21 01:52:43;;;;;;;1999.90;999.90;;;12.20;99.90;;;;;;5013252;28;20053;-77
2024/02/21 01:55:09;;;;;;;673.45;414.48;;;12.20;99.90;;;;;;5060090;28;20065;-76
2024/02/21 01:57:35;;;;;;;1999.90;999.90;;;12.20;99.90;;;;;;5011782;28;20034;-76
2024/02/21 02:00:01;;;;;;;230.18;218.45;;;12.20;99.90;;;;;;5049064;28;20032;-76
2024/02/21 02:02:27;;;;;;;664.00;405.77;;;12.20;99.90;;;;;;5029412;28;20375;-76
2024/02/21 02:04:54;;;;;;;217.48;206.57;;;12.20;99.90;;;;;;5016980;28;20030;-76
2024/02/21 02:07:20;;;;;;;238.00;225.52;;;12.10;99.90;;;;;;5019239;28;20042;-76
2024/02/21 02:09:46;;;;;;;289.95;274.00;;;12.00;99.90;;;;;;5031736;28;20028;-76
2024/02/21 02:12:12;;;;;;;220.13;208.70;;;12.10;99.90;;;;;;5064239;28;20033;-76
2024/02/21 02:14:38;;;;;;;200.10;189.98;;;12.00;99.90;;;;;;5031734;28;20036;-76
2024/02/21 02:17:04;;;;;;;252.70;239.38;;;12.10;99.90;;;;;;5032638;28;20037;-76
2024/02/21 02:19:31;;;;;;;238.25;225.73;;;12.10;99.90;;;;;;5030522;28;20038;-76
2024/02/21 02:22:05;;;;;;;209.68;198.82;;;12.00;99.90;;;;;;5032802;28;20033;-76
2024/02/21 02:24:31;;;;;;;227.65;215.82;;;12.00;99.90;;;;;;5002787;28;20056;-76
2024/02/21 02:26:57;;;;;;;263.27;249.27;;;11.90;99.90;;;;;;5029212;28;20021;-76
2024/02/21 02:29:23;;;;;;;266.55;251.98;;;11.80;99.90;;;;;;5032195;28;20064;-76
2024/02/21 02:31:50;;;;;;;373.08;350.38;;;11.80;99.90;;;;;;5030687;28;20029;-76
2024/02/21 02:34:16;;;;;;;319.27;301.63;;;11.80;99.90;;;;;;5025024;28;20036;-76
2024/02/21 02:36:42;;;;;;;349.90;329.52;;;11.80;99.90;;;;;;5028701;28;20045;-76
2024/02/21 02:39:08;;;;;;;334.65;315.60;;;11.80;99.90;;;;;;5029828;28;20481;-76
2024/02/21 02:41:37;;;;;;;329.60;310.50;;;11.80;99.90;;;;;;5032113;28;20041;-75
2024/02/21 02:44:03;;;;;;;316.75;298.77;;;11.70;99.90;;;;;;5026943;28;20033;-76
2024/02/21 02:46:29;;;;;;;268.38;253.85;;;11.80;99.90;;;;;;5023792;28;20033;-76
2024/02/21 02:48:55;;;;;;;271.05;256.60;;;11.80;99.90;;;;;;5032357;28;20521;-76
2024/02/21 02:51:21;;;;;;;269.40;255.05;;;11.70;99.90;;;;;;5024316;28;20026;-76
2024/02/21 02:53:48;;;;;;;270.27;255.70;;;11.70;99.90;;;;;;5029406;28;20450;-76
2024/02/21 02:56:15;;;;;;;276.38;261.52;;;11.70;99.90;;;;;;5029009;28;20090;-75
2024/02/21 02:58:43;;;;;;;259.45;245.45;;;11.70;99.90;;;;;;5027843;28;20042;-76
2024/02/21 03:01:09;;;;;;;307.30;289.80;;;11.60;99.90;;;;;;5024604;28;20544;-76
2024/02/21 03:03:35;;;;;;;338.70;317.83;;;11.60;99.90;;;;;;5025497;28;20026;-75
2024/02/21 03:06:01;;;;;;;345.77;325.55;;;11.30;99.90;;;;;;5024587;28;20021;-76
2024/02/21 03:08:28;;;;;;;283.00;266.88;;;11.10;99.90;;;;;;5028015;28;20028;-76
2024/02/21 03:10:54;;;;;;;265.52;250.85;;;11.10;99.90;;;;;;5029531;28;20037;-75
2024/02/21 03:13:20;;;;;;;238.23;225.13;;;11.20;99.90;;;;;;5028286;28;20542;-76
2024/02/21 03:15:46;;;;;;;252.40;238.88;;;11.20;99.90;;;;;;5028261;28;20066;-76
2024/02/21 03:18:12;;;;;;;289.00;272.98;;;11.30;99.90;;;;;;5029488;28;20471;-77
2024/02/21 03:20:38;;;;;;;272.63;257.58;;;11.20;99.90;;;;;;5030080;28;20037;-76
2024/02/21 03:23:04;;;;;;;235.23;222.57;;;11.10;99.90;;;;;;5028804;28;20037;-77
2024/02/21 03:25:30;;;;;;;249.80;236.27;;;11.20;99.90;;;;;;5028644;28;20021;-77
2024/02/21 03:27:56;;;;;;;246.90;233.65;;;11.20;99.90;;;;;;5028401;28;20026;-76
2024/02/21 03:30:22;;;;;;;270.48;255.40;;;11.30;99.90;;;;;;5020945;28;20049;-76
2024/02/21 03:32:49;;;;;;;374.90;352.48;;;11.20;99.90;;;;;;5024284;28;20395;-77
2024/02/21 03:35:15;;;;;;;270.85;255.63;;;11.20;99.90;;;;;;5029456;28;20052;-77
2024/02/21 03:37:41;;;;;;;293.42;276.45;;;11.30;99.90;;;;;;5031419;28;20037;-76
2024/02/21 03:40:09;;;;;;;307.25;289.67;;;11.30;99.90;;;;;;5031582;28;20033;-77
2024/02/21 03:42:35;;;;;;;334.35;314.77;;;11.30;99.90;;;;;;5031115;28;20049;-76
2024/02/21 03:45:01;;;;;;;309.13;291.48;;;11.30;99.90;;;;;;5041323;28;20028;-77
2024/02/21 03:47:27;;;;;;;291.70;275.02;;;11.30;99.90;;;;;;5029441;28;20037;-77
2024/02/21 03:49:53;;;;;;;278.92;263.15;;;11.30;99.90;;;;;;5030590;28;20806;-76
2024/02/21 03:52:19;;;;;;;277.80;261.98;;;11.30;99.90;;;;;;5035341;28;20032;-76
2024/02/21 03:54:45;;;;;;;265.17;250.40;;;11.30;99.90;;;;;;5034689;28;20378;-77
2024/02/21 03:57:11;;;;;;;290.45;273.50;;;11.20;99.90;;;;;;5033968;28;20037;-77
2024/02/21 03:59:39;;;;;;;320.17;301.48;;;11.00;99.90;;;;;;5033741;28;20382;-76
2024/02/21 04:02:08;;;;;;;306.67;289.08;;;11.00;99.90;;;;;;5030159;28;20033;-76
2024/02/21 04:04:37;;;;;;;277.33;261.42;;;11.00;99.90;;;;;;5033773;28;20049;-76
2024/02/21 04:07:06;;;;;;;371.85;349.60;;;11.00;99.90;;;;;;5034136;28;20525;-77
2024/02/21 04:09:35;;;;;;;351.52;331.08;;;11.00;99.90;;;;;;5032217;28;20046;-77
2024/02/21 04:12:02;;;;;;;262.75;247.85;;;11.00;99.90;;;;;;5029804;28;20052;-76
2024/02/21 04:14:28;;;;;;;251.77;237.55;;;11.00;99.90;;;;;;5034381;28;20068;-76
2024/02/21 04:16:54;;;;;;;313.48;295.30;;;11.10;99.90;;;;;;5032977;28;20054;-76
2024/02/21 04:19:20;;;;;;;308.48;290.73;;;11.10;99.90;;;;;;5023226;28;20046;-76
2024/02/21 04:21:46;;;;;;;309.17;290.90;;;11.10;99.90;;;;;;5033821;28;20382;-76
2024/02/21 04:24:12;;;;;;;379.63;357.02;;;11.00;99.90;;;;;;5031999;28;20044;-76
2024/02/21 04:26:39;;;;;;;335.88;316.13;;;11.10;99.90;;;;;;5033975;28;20029;-77
2024/02/21 04:29:05;;;;;;;247.38;233.13;;;10.90;99.90;;;;;;5032914;28;20394;-76
2024/02/21 04:31:32;;;;;;;237.52;224.55;;;10.70;99.90;;;;;;5032162;28;20040;-76
2024/02/21 04:33:58;;;;;;;300.50;283.10;;;10.60;99.90;;;;;;5033644;28;20044;-76
2024/02/21 04:36:24;;;;;;;273.73;257.98;;;10.40;99.90;;;;;;5031593;28;20045;-76
2024/02/21 04:38:50;;;;;;;190.40;179.80;;;10.00;99.90;;;;;;5025204;28;20025;-76
2024/02/21 04:41:16;;;;;;;217.40;204.80;;;9.80;99.90;;;;;;5032810;28;20041;-76
2024/02/21 04:43:42;;;;;;;295.98;278.08;;;9.80;99.90;;;;;;5034854;28;20036;-76
2024/02/21 04:46:09;;;;;;;275.00;258.70;;;9.90;99.90;;;;;;5029075;28;20398;-76
2024/02/21 04:48:35;;;;;;;279.02;261.98;;;10.00;99.90;;;;;;5027289;28;20030;-77
2024/02/21 04:51:01;;;;;;;249.73;235.30;;;10.10;99.90;;;;;;5033923;28;20033;-77
2024/02/21 04:53:28;;;;;;;249.25;235.38;;;10.10;99.90;;;;;;5035012;28;20033;-76
2024/02/21 04:55:54;;;;;;;272.30;256.45;;;10.20;99.90;;;;;;5034332;28;20049;-76
2024/02/21 04:58:20;;;;;;;290.23;273.20;;;10.30;99.90;;;;;;5033437;28;20030;-76
2024/02/21 05:00:46;;;;;;;258.80;244.38;;;10.20;99.90;;;;;;5034121;28;20033;-76
2024/02/21 05:03:12;;;;;;;270.58;254.98;;;10.10;99.90;;;;;;5032133;28;20044;-76
2024/02/21 05:05:38;;;;;;;263.88;249.00;;;10.20;99.90;;;;;;5034143;28;20390;-77
2024/02/21 05:08:04;;;;;;;234.40;221.32;;;10.30;99.90;;;;;;5032951;28;20044;-76
2024/02/21 05:10:31;;;;;;;241.88;228.60;;;10.30;99.90;;;;;;5033862;28;20040;-76
2024/02/21 05:12:57;;;;;;;224.55;212.43;;;10.40;99.90;;;;;;5033705;28;20041;-76
2024/02/21 05:15:23;;;;;;;171.32;162.10;;;10.50;99.90;;;;;;5032679;28;20053;-76
2024/02/21 05:17:50;;;;;;;181.00;170.80;;;10.50;99.90;;;;;;5027565;28;20049;-76
2024/02/21 05:20:16;;;;;;;211.88;200.05;;;10.50;99.90;;;;;;5031840;28;20037;-77
2024/02/21 05:22:42;;;;;;;197.52;186.52;;;10.60;99.90;;;;;;5032663;28;20040;-77
2024/02/21 05:25:08;;;;;;;235.88;222.10;;;10.40;99.90;;;;;;5033062;28;20036;-76
2024/02/21 05:27:35;;;;;;;230.57;217.63;;;10.50;99.90;;;;;;5032129;28;20040;-76
2024/02/21 05:30:02;;;;;;;213.13;201.27;;;10.60;99.90;;;;;;5033940;28;20032;-76
2024/02/21 05:32:28;;;;;;;254.32;239.32;;;10.50;99.90;;;;;;5032795;28;20038;-76
2024/02/21 05:34:54;;;;;;;211.82;199.90;;;10.40;99.90;;;;;;5034033;28;20045;-76
2024/02/21 05:37:20;;;;;;;209.73;198.10;;;10.40;99.90;;;;;;5023260;28;20422;-76
2024/02/21 05:39:47;;;;;;;270.25;254.05;;;10.50;99.90;;;;;;5033487;28;20037;-76
2024/02/21 05:42:13;;;;;;;312.05;293.52;;;10.60;99.90;;;;;;5033095;28;20410;-76
2024/02/21 05:44:39;;;;;;;291.30;273.92;;;10.60;99.90;;;;;;5033802;28;20038;-77
2024/02/21 05:47:09;;;;;;;301.10;282.40;;;10.50;99.90;;;;;;5032277;28;20402;-76
2024/02/21 05:49:36;;;;;;;223.15;211.25;;;10.60;99.90;;;;;;5025228;28;20045;-76
2024/02/21 05:52:02;;;;;;;245.00;226.85;;;10.60;99.90;;;;;;5032178;28;20032;-76
2024/02/21 05:54:28;;;;;;;258.95;244.70;;;10.70;99.90;;;;;;5033726;28;20029;-76
2024/02/21 05:56:54;;;;;;;198.60;188.15;;;10.70;99.90;;;;;;5032977;28;20041;-76
2024/02/21 05:59:21;;;;;;;196.15;185.02;;;10.70;99.90;;;;;;5032787;28;20040;-76
2024/02/21 06:01:57;;;;;;;201.48;190.25;;;10.60;99.90;;;;;;5031453;28;20044;-76
2024/02/21 06:04:23;;;;;;;157.13;148.95;;;10.60;99.90;;;;;;5030995;28;20033;-76
2024/02/21 06:06:49;;;;;;;177.70;167.60;;;10.50;99.90;;;;;;5032739;28;20040;-76
2024/02/21 06:09:15;;;;;;;157.52;148.68;;;10.50;99.90;;;;;;5031484;28;20045;-76
2024/02/21 06:11:42;;;;;;;160.82;152.05;;;10.50;99.90;;;;;;5031936;28;20037;-77
2024/02/21 06:14:08;;;;;;;178.38;168.43;;;10.50;99.90;;;;;;5032281;28;20064;-77
2024/02/21 06:16:34;;;;;;;186.80;176.68;;;10.50;99.90;;;;;;5036687;28;20046;-76
2024/02/21 06:19:00;;;;;;;197.68;186.57;;;10.60;99.90;;;;;;5031291;28;20052;-76
2024/02/21 06:21:29;;;;;;;180.25;170.50;;;10.60;99.90;;;;;;5032786;28;20036;-76
2024/02/21 06:23:55;;;;;;;181.48;171.90;;;10.60;99.90;;;;;;5032725;28;20093;-76
2024/02/21 06:26:21;;;;;;;173.52;164.25;;;10.60;99.90;;;;;;5031990;28;20025;-76
2024/02/21 06:28:47;;;;;;;176.32;166.40;;;10.50;99.90;;;;;;5029672;28;20029;-76
2024/02/21 06:31:14;;;;;;;172.00;162.45;;;10.50;99.90;;;;;;5031881;28;20048;-76
2024/02/21 06:33:40;;;;;;;178.55;168.80;;;10.60;99.90;;;;;;5032123;28;20060;-76
2024/02/21 06:36:07;;;;;;;174.73;165.15;;;10.60;99.90;;;;;;5020610;28;20045;-76
2024/02/21 06:38:33;;;;;;;176.52;167.05;;;10.60;99.90;;;;;;5023929;28;20025;-76
2024/02/21 06:41:00;;;;;;;181.77;171.95;;;10.70;99.90;;;;;;5027274;28;20495;-75
2024/02/21 06:43:26;;;;;;;178.05;168.50;;;10.60;99.90;;;;;;5032310;28;20060;-76
2024/02/21 06:45:54;;;;;;;195.43;185.15;;;10.60;99.90;;;;;;5030564;28;20486;-76
2024/02/21 06:48:20;;;;;;;170.70;161.52;;;10.50;99.90;;;;;;5026800;28;20038;-76
2024/02/21 06:50:46;;;;;;;159.32;151.13;;;10.50;99.90;;;;;;5046709;28;20037;-76
2024/02/21 06:53:12;;;;;;;177.10;166.95;;;10.60;99.90;;;;;;5032279;28;20403;-76
2024/02/21 06:55:38;;;;;;;174.05;164.93;;;10.50;99.90;;;;;;5031249;28;20029;-76
2024/02/21 06:58:04;;;;;;;202.18;191.55;;;10.60;99.90;;;;;;5028700;28;20046;-76
2024/02/21 07:00:31;;;;;;;184.60;174.88;;;10.60;99.90;;;;;;5031478;28;20034;-76
2024/02/21 07:02:58;;;;;;;235.70;222.82;;;10.60;99.90;;;;;;5032376;28;20037;-76
2024/02/21 07:05:24;;;;;;;182.07;172.40;;;10.60;99.90;;;;;;5031308;28;20498;-76
2024/02/21 07:07:50;;;;;;;189.57;179.45;;;10.50;99.90;;;;;;5031285;28;20032;-76
2024/02/21 07:10:16;;;;;;;179.80;170.43;;;10.60;99.90;;;;;;5025367;28;20040;-76
2024/02/21 07:12:43;;;;;;;177.48;168.15;;;10.60;99.90;;;;;;5031550;28;20033;-76
2024/02/21 07:15:09;;;;;;;176.82;167.52;;;10.50;99.90;;;;;;5024753;28;20041;-76
2024/02/21 07:17:35;;;;;;;175.18;165.73;;;10.60;99.90;;;;;;5027453;28;20049;-76
2024/02/21 07:20:02;;;;;;;194.40;183.82;;;10.50;99.90;;;;;;5024165;28;20128;-77
2024/02/21 07:22:28;;;;;;;174.50;165.07;;;10.50;99.90;;;;;;5031058;28;20041;-77
2024/02/21 07:24:54;;;;;;;167.77;159.07;;;10.40;99.90;;;;;;5030890;28;20025;-76
2024/02/21 07:27:20;;;;;;;180.07;170.57;;;10.40;99.90;;;;;;5029428;28;20037;-77
2024/02/21 07:29:48;;;;;;;194.20;183.57;;;10.30;99.90;;;;;;5030691;28;20030;-77
2024/02/21 07:32:14;;;;;;;175.80;166.60;;;10.40;99.90;;;;;;5030913;28;20405;-76
2024/02/21 07:34:40;;;;;;;175.27;165.70;;;10.50;99.90;;;;;;5031744;28;20032;-77
2024/02/21 07:37:06;;;;;;;177.13;167.65;;;10.50;99.90;;;;;;5031360;28;20064;-77
2024/02/21 07:39:37;;;;;;;161.55;153.13;;;10.60;99.90;;;;;;5031082;28;20030;-77
2024/02/21 07:42:03;;;;;;;217.90;206.50;;;10.60;99.90;;;;;;5029112;28;20049;-77
2024/02/21 07:44:31;;;;;;;222.43;210.27;;;10.60;99.90;;;;;;5031364;28;20427;-77
2024/02/21 07:46:57;;;;;;;215.85;204.18;;;10.50;99.90;;;;;;5029379;28;20414;-77
2024/02/21 07:49:24;;;;;;;226.82;214.38;;;10.50;99.90;;;;;;5029741;28;20037;-77
2024/02/21 07:51:52;;;;;;;183.65;173.68;;;10.40;99.90;;;;;;5028935;28;20037;-77
2024/02/21 07:54:18;;;;;;;165.88;156.93;;;10.40;99.90;;;;;;5031087;28;20037;-77
2024/02/21 07:56:44;;;;;;;170.90;161.85;;;10.50;99.90;;;;;;5029158;28;20052;-77
2024/02/21 07:59:10;;;;;;;223.40;210.95;;;10.50;99.90;;;;;;5023498;28;20037;-77
2024/02/21 08:01:37;;;;;;;221.52;209.05;;;10.50;99.90;;;;;;5029433;28;20041;-77
2024/02/21 08:04:04;;;;;;;236.45;222.68;;;10.50;99.90;;;;;;5031093;28;20478;-77
2024/02/21 08:06:30;;;;;;;213.27;201.70;;;10.60;99.90;;;;;;5030693;28;20413;-77
2024/02/21 08:08:57;;;;;;;210.98;199.30;;;10.70;99.90;;;;;;5025144;28;20030;-73
2024/02/21 08:11:23;;;;;;;169.27;160.18;;;10.80;99.90;;;;;;5020731;28;20041;-74
2024/02/21 08:13:49;;;;;;;301.40;283.63;;;11.00;99.90;;;;;;5024211;28;20026;-77
2024/02/21 08:16:15;;;;;;;261.85;247.45;;;11.00;99.90;;;;;;5019967;28;20045;-76
2024/02/21 08:18:43;;;;;;;227.30;214.98;;;10.90;99.90;;;;;;5028483;28;20034;-77
2024/02/21 08:21:09;;;;;;;453.38;424.10;;;10.80;99.90;;;;;;5046193;28;20042;-77
2024/02/21 08:23:36;;;;;;;429.10;402.45;;;10.80;99.90;;;;;;5016628;28;21786;-77
2024/02/21 08:26:05;;;;;;;424.48;398.20;;;10.80;99.90;;;;;;5028887;28;20040;-77
2024/02/21 08:28:31;;;;;;;367.70;344.42;;;10.70;99.90;;;;;;5019117;28;20478;-77
2024/02/21 08:30:57;;;;;;;359.40;337.30;;;10.70;99.90;;;;;;5022548;28;20033;-77
2024/02/21 08:33:25;;;;;;;344.30;323.30;;;10.70;99.90;;;;;;5030554;28;20040;-77
2024/02/21 08:35:51;;;;;;;354.63;332.73;;;10.60;99.90;;;;;;5031153;28;20390;-77
2024/02/21 08:38:18;;;;;;;397.48;372.25;;;10.60;99.90;;;;;;5020886;28;20050;-77
2024/02/21 08:40:44;;;;;;;424.05;396.38;;;10.60;99.90;;;;;;5031821;28;20086;-77
2024/02/21 08:43:10;;;;;;;341.67;320.30;;;10.60;99.90;;;;;;5023464;28;20049;-78
2024/02/21 08:45:37;;;;;;;330.13;309.70;;;10.60;99.90;;;;;;5023860;28;20402;-77
2024/02/21 08:48:04;;;;;;;346.02;325.02;;;10.70;99.90;;;;;;5026392;28;20041;-77
2024/02/21 08:50:30;;;;;;;333.55;313.60;;;10.70;99.90;;;;;;5018292;28;20036;-77
2024/02/21 08:52:56;;;;;;;784.58;516.63;;;10.80;99.90;;;;;;5027422;28;20037;-77
2024/02/21 08:55:22;;;;;;;406.60;381.38;;;10.80;99.90;;;;;;5031550;28;20036;-77
2024/02/21 08:57:48;;;;;;;282.50;265.67;;;10.80;99.90;;;;;;5034269;28;20418;-77
2024/02/21 09:00:15;;;;;;;349.48;327.92;;;10.90;99.90;;;;;;5032603;28;20386;-77
2024/02/21 09:02:44;;;;;;;385.83;362.80;;;10.80;99.90;;;;;;5028776;28;20034;-80
2024/02/21 09:05:13;;;;;;;350.73;330.25;;;10.80;99.90;;;;;;5021790;28;20030;-80
2024/02/21 09:07:39;;;;;;;347.33;327.80;;;10.90;99.90;;;;;;5029339;28;20080;-80
2024/02/21 09:10:06;;;;;;;334.13;315.10;;;10.90;99.90;;;;;;5022566;28;20053;-81
2024/02/21 09:12:32;;;;;;;319.05;301.52;;;11.00;99.90;;;;;;5029195;28;20492;-80
2024/02/21 09:14:58;;;;;;;321.55;303.38;;;11.10;99.90;;;;;;5032286;28;20032;-81
2024/02/21 09:17:25;;;;;;;707.03;657.15;;;11.10;99.90;;;;;;5024140;28;20045;-80
2024/02/21 09:19:51;;;;;;;243.23;230.27;;;11.10;99.90;;;;;;5017394;28;20034;-80
2024/02/21 09:22:17;;;;;;;247.65;234.05;;;11.10;99.90;;;;;;5023505;28;20093;-80
2024/02/21 09:24:43;;;;;;;260.65;246.52;;;11.00;99.90;;;;;;5025679;28;20031;-86
2024/02/21 09:27:09;;;;;;;263.02;248.63;;;11.10;99.90;;;;;;5033716;28;20470;-82
2024/02/21 09:29:36;;;;;;;266.65;251.98;;;11.10;99.90;;;;;;5033852;28;20088;-81
2024/02/21 09:32:02;;;;;;;1999.90;999.90;;;11.00;99.90;;;;;;5033065;28;20046;-80
2024/02/21 09:34:29;;;;;;;1999.90;999.90;;;11.00;99.90;;;;;;5029033;28;20041;-80
2024/02/21 09:36:55;;;;;;;1999.90;999.90;;;11.00;99.90;;;;;;5029122;28;20033;-80
2024/02/21 09:39:21;;;;;;;1999.90;999.90;;;11.10;99.90;;;;;;5019355;28;20036;-82
2024/02/21 09:41:56;;;;;;;1999.90;999.90;;;11.10;99.90;;;;;;5026751;28;20045;-82
2024/02/21 09:44:22;;;;;;;1999.90;999.90;;;11.20;99.90;;;;;;5026255;28;20021;-82
2024/02/21 09:46:59;;;;;;;1999.90;999.90;;;11.20;99.90;;;;;;5011345;28;20044;-75
2024/02/21 09:49:37;;;;;;;1999.90;999.90;;;11.30;99.90;;;;;;5029837;28;20026;-75
2024/02/21 09:52:07;;;;;;;1999.90;999.90;;;11.30;99.90;;;;;;5030148;28;20043;-77
2024/02/21 09:54:36;;;;;;;1999.90;999.90;;;11.30;99.90;;;;;;5033346;28;20040;-76
2024/02/21 09:57:05;;;;;;;1999.90;999.90;;;11.30;99.90;;;;;;5032443;28;20042;-75
2024/02/21 09:59:32;;;;;;;1999.90;999.90;;;11.40;99.90;;;;;;5033694;28;20025;-76
2024/02/21 10:02:01;;;;;;;1999.90;999.90;;;11.40;99.90;;;;;;5031946;28;20029;-75
2024/02/21 10:04:27;;;;;;;1999.90;999.90;;;11.40;99.90;;;;;;5033461;28;20474;-75
2024/02/21 10:06:54;;;;;;;1999.90;999.90;;;11.40;99.90;;;;;;5032315;28;20037;-78
2024/02/21 10:09:23;;;;;;;1999.90;999.90;;;11.50;99.90;;;;;;5043670;28;20542;-78
2024/02/21 10:11:51;;;;;;;1999.90;999.90;;;11.50;99.90;;;;;;5026389;28;20489;-78
2024/02/21 10:14:18;;;;;;;1999.90;999.90;;;11.60;99.90;;;;;;5029736;28;20022;-78
2024/02/21 10:16:47;;;;;;;1999.90;999.90;;;11.50;99.90;;;;;;5032028;28;20045;-78
2024/02/21 10:19:19;;;;;;;379.02;355.20;;;11.60;99.90;;;;;;5028697;28;20030;-78
2024/02/21 10:22:04;;;;;;;365.45;343.08;;;11.50;99.90;;;;;;5031034;28;20040;-78
2024/02/21 10:24:34;;;;;;;323.38;304.85;;;11.60;99.90;;;;;;5031376;28;20029;-78
2024/02/21 10:27:10;;;;;;;328.23;308.88;;;11.60;99.90;;;;;;5031986;28;20048;-78
2024/02/21 10:29:36;;;;;;;254.65;238.93;;;11.60;99.90;;;;;;5029628;28;20376;-78
2024/02/21 10:32:13;;;;;;;309.20;291.55;;;11.60;99.90;;;;;;5029229;28;20029;-78
2024/02/21 10:34:40;;;;;;;348.65;328.30;;;11.70;99.90;;;;;;5030080;28;20045;-78
2024/02/21 10:37:07;;;;;;;376.52;354.13;;;11.70;99.90;;;;;;5031265;28;20034;-78
2024/02/21 10:39:36;;;;;;;278.98;262.33;;;11.70;99.90;;;;;;5029778;28;20029;-78
2024/02/21 10:42:05;;;;;;;279.35;263.33;;;11.80;99.90;;;;;;5031722;28;20033;-79
2024/02/21 10:44:33;;;;;;;356.48;335.77;;;11.80;99.90;;;;;;5030946;28;20030;-79
2024/02/21 10:46:59;;;;;;;446.75;415.33;;;11.80;99.90;;;;;;5026633;28;20396;-79
2024/02/21 10:49:29;;;;;;;515.05;477.20;;;11.80;99.90;;;;;;5032326;28;20093;-79
2024/02/21 10:52:04;;;;;;;488.17;454.02;;;11.80;99.90;;;;;;5030109;28;20041;-77
2024/02/21 10:55:03;;;;;;;492.58;458.67;;;11.80;99.90;;;;;;5029341;28;20030;-79
2024/02/21 10:57:29;;;;;;;437.25;408.73;;;11.80;99.90;;;;;;5025100;28;20068;-78
2024/02/21 10:59:55;;;;;;;397.42;372.10;;;11.90;99.90;;;;;;5029486;28;20034;-79
2024/02/21 11:02:22;;;;;;;415.33;387.98;;;11.90;99.90;;;;;;5030212;28;20029;-83
2024/02/21 11:04:48;;;;;;;405.98;379.40;;;11.90;99.90;;;;;;5026938;28;20029;-79
2024/02/21 11:07:14;;;;;;;336.25;315.73;;;11.80;99.90;;;;;;5019343;28;20041;-79
2024/02/21 11:09:40;;;;;;;357.98;335.55;;;11.80;99.90;;;;;;5029623;28;20041;-78
2024/02/21 11:12:06;;;;;;;311.20;291.60;;;11.90;99.90;;;;;;5031365;28;20032;-80
2024/02/21 11:14:39;;;;;;;325.85;305.40;;;11.90;99.90;;;;;;5032167;28;20041;-80
2024/02/21 11:17:16;;;;;;;364.40;341.38;;;11.80;99.90;;;;;;5030150;28;20046;-80
2024/02/21 11:19:42;;;;;;;297.08;278.83;;;11.90;99.90;;;;;;5031457;28;20394;-80
2024/02/21 11:22:16;;;;;;;278.98;261.75;;;11.90;99.90;;;;;;5031696;28;20034;-81
2024/02/21 11:24:42;;;;;;;271.00;254.20;;;11.80;99.90;;;;;;5031854;28;20052;-80
2024/02/21 11:27:13;;;;;;;339.25;318.10;;;11.80;99.90;;;;;;5029367;28;20056;-80
2024/02/21 11:29:55;;;;;;;300.33;281.67;;;11.90;99.90;;;;;;5031664;28;20029;-80
2024/02/21 11:32:21;;;;;;;383.63;360.27;;;11.90;99.90;;;;;;5029735;28;20041;-80
2024/02/21 11:35:04;;;;;;;280.50;263.55;;;11.90;99.90;;;;;;5029732;28;20029;-80
2024/02/21 11:37:34;;;;;;;325.75;305.05;;;12.00;99.90;;;;;;5030859;28;20040;-80
2024/02/21 11:40:00;;;;;;;346.58;325.50;;;12.00;99.90;;;;;;5031276;28;20037;-80
2024/02/21 11:42:27;;;;;;;354.65;332.05;;;12.00;99.90;;;;;;5030687;28;20060;-81
2024/02/21 11:44:53;;;;;;;364.55;341.63;;;11.90;99.90;;;;;;5030731;28;20390;-81
2024/02/21 11:47:19;;;;;;;364.75;341.20;;;12.00;99.90;;;;;;5028442;28;20379;-81
2024/02/21 11:49:46;;;;;;;353.80;330.58;;;12.00;99.90;;;;;;5031302;28;20037;-81
2024/02/21 11:52:15;;;;;;;329.23;308.58;;;12.00;99.90;;;;;;5030914;28;20041;-81
2024/02/21 11:54:41;;;;;;;366.75;342.58;;;12.00;99.90;;;;;;5031691;28;20041;-81
2024/02/21 11:57:07;;;;;;;373.95;349.45;;;12.00;99.90;;;;;;5030898;28;20406;-81
2024/02/21 11:59:33;;;;;;;384.88;359.38;;;12.00;99.90;;;;;;5031426;28;20045;-81
2024/02/21 12:02:00;;;;;;;369.88;345.80;;;12.00;99.90;;;;;;5030737;28;20034;-81
2024/02/21 12:04:26;;;;;;;322.90;301.55;;;12.00;99.90;;;;;;5031046;28;20049;-81